createdAt,value
2022-09-09T00:02:10.118Z,99762.72
2022-09-09T00:04:39.957Z,99761.78
2022-09-09T00:07:19.425Z,99760.38
2022-09-09T00:10:13.177Z,99762.13
2022-09-09T00:13:01.466Z,99765.13
2022-09-09T00:16:11.655Z,99772.22
2022-09-09T00:18:56.350Z,99768.22
2022-09-09T00:21:39.892Z,99760.59
2022-09-09T00:24:33.176Z,99753.78
2022-09-09T00:27:30.961Z,99758.00
2022-09-09T00:30:23.856Z,99752.91
2022-09-09T00:32:59.142Z,99762.19
2022-09-09T00:35:46.441Z,99759.59
2022-09-09T00:38:39.441Z,99772.69
2022-09-09T00:41:36.164Z,99768.97
2022-09-09T00:44:37.842Z,99762.53
2022-09-09T00:47:26.997Z,99765.84
2022-09-09T00:50:46.913Z,99751.72
2022-09-09T00:53:53.184Z,99754.16
2022-09-09T00:56:34.096Z,99759.53
2022-09-09T00:59:05.209Z,99762.81
2022-09-09T01:01:32.807Z,99762.53
2022-09-09T01:04:00.700Z,99769.81
2022-09-09T01:06:39.546Z,99772.19
2022-09-09T01:09:43.480Z,99768.22
2022-09-09T01:12:27.968Z,99760.59
2022-09-09T01:15:21.995Z,99759.06
2022-09-09T01:18:09.038Z,99759.47
2022-09-09T01:21:11.936Z,99755.69
2022-09-09T01:24:15.689Z,99761.47
2022-09-09T01:27:03.695Z,99758.41
2022-09-09T01:29:31.740Z,99762.25
2022-09-09T01:32:03.386Z,99755.53
2022-09-09T01:34:40.438Z,99752.16
2022-09-09T01:37:11.681Z,99760.25
2022-09-09T01:39:44.187Z,99759.19
2022-09-09T01:42:17.241Z,99758.22
2022-09-09T01:44:45.671Z,99761.16
2022-09-09T01:47:13.904Z,99763.31
2022-09-09T01:49:56.382Z,99762.56
2022-09-09T01:52:27.764Z,99758.56
2022-09-09T01:54:59.063Z,99753.88
2022-09-09T01:57:40.894Z,99754.03
2022-09-09T02:00:13.280Z,99755.06
2022-09-09T02:03:02.156Z,99751.81
2022-09-09T02:05:42.640Z,99763.03
2022-09-09T02:08:30.274Z,99758.31
2022-09-09T02:11:14.633Z,99752.63
2022-09-09T02:14:22.620Z,99756.59
2022-09-09T02:17:00.571Z,99764.63
2022-09-09T02:20:07.364Z,99762.38
2022-09-09T02:22:46.875Z,99764.81
2022-09-09T02:25:20.645Z,99763.50
2022-09-09T02:27:52.568Z,99763.00
2022-09-09T02:30:21.471Z,99757.97
2022-09-09T02:33:00.490Z,99762.44
2022-09-09T02:35:44.248Z,99772.19
2022-09-09T02:38:16.686Z,99772.19
2022-09-09T02:40:53.495Z,99763.25
2022-09-09T02:43:21.372Z,99770.72
2022-09-09T02:46:28.009Z,99777.81
2022-09-09T02:49:11.006Z,99775.41
2022-09-09T02:52:06.922Z,99776.25
2022-09-09T02:54:40.476Z,99771.06
2022-09-09T02:57:22.442Z,99767.66
2022-09-09T02:59:53.065Z,99775.41
2022-09-09T03:02:20.887Z,99767.97
2022-09-09T03:04:54.096Z,99775.84
2022-09-09T03:07:22.061Z,99777.47
2022-09-09T03:09:52.054Z,99770.38
2022-09-09T03:12:19.468Z,99771.22
2022-09-09T03:14:47.743Z,99767.47
2022-09-09T03:17:15.268Z,99771.22
2022-09-09T03:19:51.190Z,99770.53
2022-09-09T03:22:18.639Z,99764.66
2022-09-09T03:24:47.988Z,99770.63
2022-09-09T03:27:20.534Z,99776.81
2022-09-09T03:29:52.064Z,99781.81
2022-09-09T03:32:23.638Z,99785.25
2022-09-09T03:34:51.712Z,99791.84
2022-09-09T03:37:23.543Z,99782.88
2022-09-09T03:39:51.982Z,99791.06
2022-09-09T03:42:20.271Z,99795.00
2022-09-09T03:44:51.508Z,99806.03
2022-09-09T03:47:22.912Z,99800.69
2022-09-09T03:49:53.043Z,99795.94
2022-09-09T03:52:23.836Z,99801.16
2022-09-09T03:54:53.925Z,99808.78
2022-09-09T03:57:22.737Z,99803.06
2022-09-09T03:59:51.049Z,99815.03
2022-09-09T04:02:18.504Z,99814.00
2022-09-09T04:04:46.055Z,99811.88
2022-09-09T04:07:15.093Z,99802.63
2022-09-09T04:09:42.641Z,99798.34
2022-09-09T04:12:12.377Z,99803.19
2022-09-09T04:14:39.834Z,99800.47
2022-09-09T04:17:08.915Z,99803.97
2022-09-09T04:19:36.579Z,99791.84
2022-09-09T04:22:04.265Z,99788.88
2022-09-09T04:24:31.735Z,99775.94
2022-09-09T04:27:01.244Z,99783.22
2022-09-09T04:29:29.139Z,99773.88
2022-09-09T04:31:57.017Z,99776.19
2022-09-09T04:34:24.755Z,99780.03
2022-09-09T04:36:53.708Z,99791.41
2022-09-09T04:39:23.376Z,99796.94
2022-09-09T04:41:52.543Z,99794.84
2022-09-09T04:44:19.962Z,99788.66
2022-09-09T04:46:48.336Z,99798.69
2022-09-09T04:49:16.145Z,99794.69
2022-09-09T04:51:44.552Z,99800.34
2022-09-09T04:54:12.748Z,99803.63
2022-09-09T04:56:43.493Z,99808.94
2022-09-09T04:59:11.986Z,99801.69
2022-09-09T05:01:46.661Z,99808.09
2022-09-09T05:04:16.288Z,99809.28
2022-09-09T05:06:47.150Z,99803.88
2022-09-09T05:09:15.004Z,99811.09
2022-09-09T05:11:42.924Z,99805.13
2022-09-09T05:14:26.155Z,99811.03
2022-09-09T05:16:54.732Z,99807.25
2022-09-09T05:19:23.847Z,99809.38
2022-09-09T05:21:53.087Z,99807.22
2022-09-09T05:24:25.495Z,99823.25
2022-09-09T05:27:00.913Z,99819.66
2022-09-09T05:29:29.278Z,99819.88
2022-09-09T05:31:57.852Z,99814.06
2022-09-09T05:34:25.721Z,99804.81
2022-09-09T05:36:54.730Z,99807.06
2022-09-09T05:39:23.867Z,99797.94
2022-09-09T05:41:52.259Z,99802.91
2022-09-09T05:44:20.404Z,99811.66
2022-09-09T05:46:48.592Z,99813.16
2022-09-09T05:49:16.710Z,99819.22
2022-09-09T05:51:44.942Z,99816.97
2022-09-09T05:54:16.467Z,99817.34
2022-09-09T05:56:51.902Z,99818.81
2022-09-09T05:59:20.469Z,99824.25
2022-09-09T06:01:48.700Z,99826.34
2022-09-09T06:04:25.935Z,99825.50
2022-09-09T06:06:54.230Z,99817.66
2022-09-09T06:09:23.902Z,99811.75
2022-09-09T06:11:51.460Z,99809.25
2022-09-09T06:14:20.416Z,99797.16
2022-09-09T06:16:50.067Z,99790.88
2022-09-09T06:19:25.466Z,99791.19
2022-09-09T06:21:53.078Z,99801.88
2022-09-09T06:24:21.066Z,99802.22
2022-09-09T06:26:49.627Z,99799.63
2022-09-09T06:29:22.022Z,99806.09
2022-09-09T06:31:49.832Z,99800.38
2022-09-09T06:34:21.986Z,99798.53
2022-09-09T06:37:09.772Z,99790.03
2022-09-09T06:39:42.570Z,99799.41
2022-09-09T06:42:10.554Z,99800.13
2022-09-09T06:45:04.332Z,99802.69
2022-09-09T06:47:40.390Z,99815.03
2022-09-09T06:50:09.347Z,99812.38
2022-09-09T06:52:37.574Z,99819.97
2022-09-09T06:55:25.038Z,99808.94
2022-09-09T06:57:53.404Z,99814.72
2022-09-09T07:00:25.074Z,99818.19
2022-09-09T07:02:52.987Z,99832.03
2022-09-09T07:05:20.614Z,99827.06
2022-09-09T07:07:48.102Z,99822.50
2022-09-09T07:10:18.755Z,99825.91
2022-09-09T07:12:50.859Z,99833.56
2022-09-09T07:15:19.699Z,99838.16
2022-09-09T07:17:47.973Z,99830.88
2022-09-09T07:20:16.807Z,99819.38
2022-09-09T07:22:44.502Z,99820.19
2022-09-09T07:25:12.502Z,99831.66
2022-09-09T07:27:41.742Z,99822.09
2022-09-09T07:30:13.733Z,99821.69
2022-09-09T07:32:43.854Z,99812.88
2022-09-09T07:35:11.491Z,99813.97
2022-09-09T07:37:39.436Z,99807.69
2022-09-09T07:40:07.798Z,99809.16
2022-09-09T07:42:37.415Z,99817.53
2022-09-09T07:45:06.659Z,99807.06
2022-09-09T07:47:34.508Z,99802.25
2022-09-09T07:50:02.894Z,99806.34
2022-09-09T07:52:32.297Z,99808.03
2022-09-09T07:55:05.573Z,99808.34
2022-09-09T07:57:34.341Z,99803.69
2022-09-09T08:00:23.795Z,99802.22
2022-09-09T08:02:55.441Z,99802.97
2022-09-09T08:05:23.925Z,99799.78
2022-09-09T08:07:54.779Z,99790.88
2022-09-09T08:10:22.597Z,99787.75
2022-09-09T08:13:14.691Z,99797.38
2022-09-09T08:15:42.159Z,99792.72
2022-09-09T08:18:10.019Z,99787.38
2022-09-09T08:20:38.981Z,99788.91
2022-09-09T08:23:08.593Z,99800.53
2022-09-09T08:25:36.484Z,99799.25
2022-09-09T08:28:04.711Z,99792.63
2022-09-09T08:30:32.387Z,99787.03
2022-09-09T08:33:01.171Z,99789.75
2022-09-09T08:35:33.616Z,99785.84
2022-09-09T08:38:05.489Z,99790.19
2022-09-09T08:40:50.498Z,99778.47
2022-09-09T08:43:22.352Z,99783.63
2022-09-09T08:46:07.544Z,99778.63
2022-09-09T08:49:47.719Z,99784.88
2022-09-09T08:52:25.783Z,99771.84
2022-09-09T08:54:56.289Z,99778.31
2022-09-09T08:57:45.439Z,99775.50
2022-09-09T09:00:14.291Z,99771.16
2022-09-09T09:02:59.659Z,99765.31
2022-09-09T09:05:39.162Z,99763.41
2022-09-09T09:08:44.509Z,99751.34
2022-09-09T09:11:12.241Z,99763.88
2022-09-09T09:14:02.042Z,99758.56
2022-09-09T09:16:48.907Z,99756.84
2022-09-09T09:19:19.100Z,99740.88
2022-09-09T09:22:13.203Z,99741.66
2022-09-09T09:24:55.356Z,99751.97
2022-09-09T09:27:37.811Z,99734.41
2022-09-09T09:30:29.893Z,99735.47
2022-09-09T09:33:28.317Z,99727.38
2022-09-09T09:35:57.030Z,99728.22
2022-09-09T09:41:19.396Z,99719.13
2022-09-09T09:43:55.768Z,99715.25
2022-09-09T09:46:26.858Z,99717.09
2022-09-09T09:49:11.424Z,99716.88
2022-09-09T09:51:41.271Z,99708.28
2022-09-09T09:54:14.620Z,99702.53
2022-09-09T09:56:45.838Z,99707.03
2022-09-09T09:59:40.724Z,99704.38
2022-09-09T10:02:44.187Z,99695.25
2022-09-09T10:05:26.584Z,99688.34
2022-09-09T10:08:03.524Z,99704.25
2022-09-09T10:11:07.123Z,99688.31
2022-09-09T10:14:04.454Z,99685.03
2022-09-09T10:17:12.353Z,99687.44
2022-09-09T10:19:56.203Z,99692.25
2022-09-09T10:22:35.353Z,99683.94
2022-09-09T10:25:51.809Z,99685.72
2022-09-09T10:28:49.268Z,99677.16
2022-09-09T10:32:02.561Z,99668.19
2022-09-09T10:34:57.823Z,99668.50
2022-09-09T10:38:01.680Z,99663.00
2022-09-09T10:40:56.545Z,99664.63
2022-09-09T10:43:32.802Z,99661.38
2022-09-09T10:46:23.167Z,99671.03
2022-09-09T10:49:23.223Z,99671.03
2022-09-09T10:52:12.011Z,99669.19
2022-09-09T10:55:53.981Z,99662.22
2022-09-09T10:58:50.060Z,99653.75
2022-09-09T11:01:33.178Z,99659.75
2022-09-09T11:04:23.375Z,99650.59
2022-09-09T11:06:56.085Z,99646.09
2022-09-09T11:09:29.658Z,99638.53
2022-09-09T11:12:00.102Z,99630.47
2022-09-09T11:14:44.709Z,99630.72
2022-09-09T11:17:21.999Z,99619.44
2022-09-09T11:19:49.501Z,99626.22
2022-09-09T11:22:44.476Z,99617.03
2022-09-09T11:25:14.735Z,99619.13
2022-09-09T11:28:28.251Z,99606.34
2022-09-09T11:34:50.496Z,99599.81
2022-09-09T11:37:39.175Z,99600.00
2022-09-09T11:40:18.766Z,99592.75
2022-09-09T11:42:49.296Z,99593.84
2022-09-09T11:45:29.733Z,99591.81
2022-09-09T11:48:01.307Z,99582.75
2022-09-09T11:50:37.750Z,99582.41
2022-09-09T11:53:17.548Z,99578.25
2022-09-09T11:55:45.244Z,99577.38
2022-09-09T11:58:12.603Z,99577.66
2022-09-09T12:00:45.411Z,99575.06
2022-09-09T12:03:38.367Z,99573.31
2022-09-09T12:06:33.474Z,99566.28
2022-09-09T12:09:46.155Z,99560.84
2022-09-09T12:12:13.502Z,99558.16
2022-09-09T12:15:10.006Z,99551.38
2022-09-09T12:17:50.348Z,99545.66
2022-09-09T12:20:39.975Z,99532.78
2022-09-09T12:23:34.381Z,99531.53
2022-09-09T12:26:51.844Z,99527.69
2022-09-09T12:29:41.045Z,99526.59
2022-09-09T12:32:15.277Z,99520.19
2022-09-09T12:34:53.460Z,99527.84
2022-09-09T12:37:52.385Z,99524.47
2022-09-09T12:40:33.412Z,99512.41
2022-09-09T12:43:02.502Z,99511.41
2022-09-09T12:45:37.021Z,99508.72
2022-09-09T12:48:13.105Z,99510.97
2022-09-09T12:50:48.915Z,99512.94
2022-09-09T12:53:37.714Z,99505.69
2022-09-09T12:56:09.908Z,99507.19
2022-09-09T12:58:41.376Z,99501.63
2022-09-09T13:01:24.653Z,99502.22
2022-09-09T13:03:54.662Z,99496.78
2022-09-09T13:06:29.465Z,99492.19
2022-09-09T13:09:03.937Z,99497.50
2022-09-09T13:11:43.179Z,99482.59
2022-09-09T13:14:33.583Z,99480.50
2022-09-09T13:17:04.492Z,99466.97
2022-09-09T13:19:38.850Z,99468.09
2022-09-09T13:22:28.538Z,99461.97
2022-09-09T13:25:15.109Z,99468.06
2022-09-09T13:28:03.528Z,99467.69
2022-09-09T13:30:41.320Z,99464.03
2022-09-09T13:33:15.531Z,99464.03
2022-09-09T13:35:57.119Z,99467.97
2022-09-09T13:38:27.717Z,99459.88
2022-09-09T13:41:24.977Z,99452.59
2022-09-09T13:43:56.214Z,99450.50
2022-09-09T13:46:36.797Z,99461.47
2022-09-09T13:49:13.188Z,99455.91
2022-09-09T13:51:48.029Z,99448.44
2022-09-09T13:54:18.998Z,99444.72
2022-09-09T13:56:48.240Z,99442.03
2022-09-09T13:59:22.429Z,99439.03
2022-09-09T14:01:50.336Z,99428.34
2022-09-09T14:04:17.941Z,99419.34
2022-09-09T14:06:47.004Z,99417.63
2022-09-09T14:09:17.897Z,99420.38
2022-09-09T14:11:47.439Z,99424.16
2022-09-09T14:14:15.080Z,99423.13
2022-09-09T14:16:42.620Z,99414.66
2022-09-09T14:19:11.263Z,99416.53
2022-09-09T14:21:38.830Z,99417.91
2022-09-09T14:24:07.230Z,99420.75
2022-09-09T14:26:34.681Z,99421.69
2022-09-09T14:29:02.800Z,99423.91
2022-09-09T14:31:30.705Z,99422.28
2022-09-09T14:33:58.237Z,99414.25
2022-09-09T16:13:55.402Z,99381.75
2022-09-09T16:16:26.997Z,99387.47
2022-09-09T16:18:58.229Z,99389.50
2022-09-09T16:21:33.055Z,99382.06
2022-09-09T16:24:03.758Z,99389.63
2022-09-09T16:26:34.129Z,99384.50
2022-09-09T16:29:03.729Z,99384.34
2022-09-09T16:31:36.971Z,99376.25
2022-09-09T16:34:04.802Z,99384.59
2022-09-09T16:36:36.538Z,99386.84
2022-09-09T16:39:10.925Z,99381.63
2022-09-09T16:41:40.258Z,99377.66
2022-09-09T16:44:13.296Z,99384.69
2022-09-09T16:46:44.567Z,99383.22
2022-09-09T16:49:16.917Z,99380.47
2022-09-09T16:51:54.374Z,99387.88
2022-09-09T16:54:24.442Z,99381.63
2022-09-09T16:56:52.173Z,99382.81
2022-09-09T16:59:22.554Z,99379.63
2022-09-09T17:01:52.316Z,99384.41
2022-09-09T17:04:25.104Z,99389.03
2022-09-09T17:06:55.764Z,99386.06
2022-09-09T17:09:24.382Z,99389.22
2022-09-09T17:11:53.431Z,99390.03
2022-09-09T17:14:22.844Z,99396.47
2022-09-09T17:16:50.960Z,99399.59
2022-09-09T17:19:18.943Z,99384.00
2022-09-09T17:22:17.862Z,99391.34
2022-09-09T17:24:39.584Z,99394.72
2022-09-09T17:27:07.553Z,99395.38
2022-09-09T17:29:39.197Z,99400.75
2022-09-09T17:32:08.488Z,99402.44
2022-09-09T17:34:39.031Z,99405.69
2022-09-09T17:37:09.181Z,99417.25
2022-09-09T17:39:37.933Z,99412.09
2022-09-09T17:42:06.122Z,99414.81
2022-09-09T17:44:33.800Z,99411.94
2022-09-09T17:47:01.804Z,99423.16
2022-09-09T17:49:29.832Z,99424.22
2022-09-09T17:51:58.920Z,99429.00
2022-09-09T17:54:28.280Z,99423.13
2022-09-09T17:56:55.820Z,99435.81
2022-09-09T17:59:33.625Z,99431.31
2022-09-09T18:02:02.058Z,99432.06
2022-09-09T18:04:30.151Z,99439.50
2022-09-09T18:06:59.921Z,99430.88
2022-09-09T18:09:31.531Z,99439.94
2022-09-09T18:12:01.766Z,99437.69
2022-09-09T18:14:31.994Z,99441.63
2022-09-09T18:17:23.634Z,99451.47
2022-09-09T18:19:51.654Z,99452.56
2022-09-09T18:22:20.928Z,99455.69
2022-09-09T18:24:50.410Z,99451.91
2022-09-09T18:27:17.963Z,99447.91
2022-09-09T18:29:46.059Z,99450.66
2022-09-09T18:32:15.116Z,99454.72
2022-09-09T18:34:42.890Z,99460.13
2022-09-09T18:37:13.588Z,99457.75
2022-09-09T18:39:41.525Z,99456.41
2022-09-09T18:42:09.383Z,99458.84
2022-09-09T18:44:38.035Z,99465.75
2022-09-09T18:47:05.876Z,99471.59
2022-09-09T18:49:33.531Z,99467.88
2022-09-09T18:52:02.621Z,99477.88
2022-09-09T18:54:35.588Z,99469.59
2022-09-09T18:57:03.363Z,99462.78
2022-09-09T18:59:33.271Z,99474.16
2022-09-09T19:02:04.268Z,99480.25
2022-09-09T19:04:33.266Z,99486.72
2022-09-09T19:07:01.018Z,99477.91
2022-09-09T19:09:34.333Z,99480.53
2022-09-09T19:12:04.008Z,99485.19
2022-09-09T19:14:34.809Z,99480.09
2022-09-09T19:17:11.283Z,99478.34
2022-09-09T19:19:43.691Z,99474.69
2022-09-09T19:22:11.889Z,99472.50
2022-09-09T19:24:40.922Z,99467.91
2022-09-09T19:27:11.457Z,99466.50
2022-09-09T19:29:43.420Z,99458.81
2022-09-09T19:32:51.763Z,99461.06
2022-09-09T19:35:02.602Z,99464.88
2022-09-09T19:37:31.825Z,99460.28
2022-09-09T19:39:59.519Z,99463.75
2022-09-09T19:42:27.227Z,99457.31
2022-09-09T19:45:01.430Z,99454.31
2022-09-09T19:47:29.066Z,99449.63
2022-09-09T19:49:56.703Z,99453.84
2022-09-09T19:52:26.751Z,99452.66
2022-09-09T19:54:57.095Z,99449.97
2022-09-09T19:57:24.917Z,99438.78
2022-09-09T19:59:52.782Z,99439.13
2022-09-09T20:02:20.362Z,99433.78
2022-09-09T20:04:48.010Z,99434.91
2022-09-09T20:07:15.923Z,99433.06
2022-09-09T20:09:43.401Z,99438.06
2022-09-09T20:12:10.883Z,99438.50
2022-09-09T20:14:39.890Z,99429.38
2022-09-09T20:17:08.246Z,99433.97
2022-09-09T20:19:35.943Z,99436.56
2022-09-09T20:22:05.000Z,99438.97
2022-09-09T20:24:32.639Z,99439.00
2022-09-09T20:27:00.079Z,99432.53
2022-09-09T20:29:27.538Z,99428.00
2022-09-09T20:31:55.236Z,99432.94
2022-09-09T20:34:27.301Z,99432.47
2022-09-09T20:36:59.330Z,99433.28
2022-09-09T20:39:27.877Z,99432.22
2022-09-09T20:41:55.477Z,99437.94
2022-09-09T20:44:24.648Z,99425.13
2022-09-09T20:47:00.464Z,99430.28
2022-09-09T20:49:28.139Z,99430.69
2022-09-09T20:51:55.851Z,99434.28
2022-09-09T20:54:26.403Z,99425.88
2022-09-09T20:56:55.514Z,99423.63
2022-09-09T20:59:26.507Z,99430.53
2022-09-09T21:01:55.515Z,99435.13
2022-09-09T21:04:25.130Z,99443.22
2022-09-09T21:06:53.477Z,99437.09
2022-09-09T21:09:24.668Z,99437.06
2022-09-09T21:11:54.954Z,99437.84
2022-09-09T21:14:23.207Z,99443.56
2022-09-09T21:16:50.907Z,99443.94
2022-09-09T21:19:18.758Z,99440.91
2022-09-09T21:21:47.917Z,99446.25
2022-09-09T21:24:15.682Z,99447.44
2022-09-09T21:26:43.344Z,99448.56
2022-09-09T21:29:10.967Z,99448.19
2022-09-09T21:31:38.506Z,99460.00
2022-09-09T21:34:05.973Z,99452.00
2022-09-09T21:36:33.797Z,99447.41
2022-09-09T21:39:01.324Z,99439.78
2022-09-09T21:41:28.891Z,99439.03
2022-09-09T21:43:56.840Z,99441.31
2022-09-09T21:46:26.634Z,99441.69
2022-09-09T21:48:57.736Z,99439.41
2022-09-09T21:51:26.115Z,99432.16
2022-09-09T21:53:57.106Z,99437.88
2022-09-09T21:56:26.823Z,99439.41
2022-09-09T21:59:04.805Z,99445.53
2022-09-09T22:01:34.218Z,99444.38
2022-09-09T22:04:02.014Z,99443.63
2022-09-09T22:06:29.511Z,99440.56
2022-09-09T22:08:59.081Z,99444.75
2022-09-09T22:11:26.565Z,99442.47
2022-09-09T22:13:54.027Z,99449.34
2022-09-09T22:16:23.971Z,99448.19
2022-09-09T22:19:00.264Z,99442.13
2022-09-09T22:21:31.147Z,99444.41
2022-09-09T22:24:02.420Z,99453.53
2022-09-09T22:26:33.512Z,99437.94
2022-09-09T22:29:01.451Z,99438.69
2022-09-09T22:31:29.592Z,99431.81
2022-09-09T22:33:57.452Z,99431.03
2022-09-09T22:36:26.155Z,99431.44
2022-09-09T22:38:54.188Z,99435.25
2022-09-09T22:41:22.284Z,99436.78
2022-09-09T22:43:49.735Z,99437.88
2022-09-09T22:46:18.920Z,99427.22
2022-09-09T22:48:47.257Z,99435.22
2022-09-09T22:51:16.124Z,99428.00
2022-09-09T22:53:47.278Z,99430.69
2022-09-09T22:56:18.617Z,99425.31
2022-09-09T22:58:47.245Z,99431.41
2022-09-09T23:01:21.019Z,99428.34
2022-09-09T23:03:50.615Z,99427.56
2022-09-09T23:06:24.032Z,99437.44
2022-09-09T23:08:55.983Z,99440.47
2022-09-09T23:11:30.447Z,99449.50
2022-09-09T23:14:00.856Z,99452.97
2022-09-09T23:16:39.825Z,99449.91
2022-09-09T23:19:11.566Z,99444.94
2022-09-09T23:21:40.998Z,99442.38
2022-09-09T23:24:14.253Z,99441.66
2022-09-09T23:26:45.573Z,99443.91
2022-09-09T23:29:14.269Z,99438.84
2022-09-09T23:31:46.703Z,99441.50
2022-09-09T23:34:14.536Z,99429.63
2022-09-09T23:36:42.353Z,99433.84
2022-09-09T23:39:11.877Z,99426.19
2022-09-09T23:41:40.376Z,99429.66
2022-09-09T23:44:08.433Z,99424.38
2022-09-09T23:46:36.790Z,99420.59
2022-09-09T23:49:05.053Z,99421.31
2022-09-09T23:51:33.978Z,99423.97
2022-09-09T23:54:04.822Z,99423.94
2022-09-09T23:56:37.766Z,99428.50
2022-09-09T23:59:07.378Z,99436.88
